createdAt,value
2022-10-31T00:01:29.158Z,27.55
2022-10-31T00:03:56.830Z,27.17
2022-10-31T00:06:24.431Z,28.60
2022-10-31T00:08:57.250Z,26.05
2022-10-31T00:11:25.092Z,24.85
2022-10-31T00:13:52.680Z,25.45
2022-10-31T00:16:23.006Z,25.25
2022-10-31T00:18:56.118Z,25.52
2022-10-31T00:21:23.719Z,25.00
2022-10-31T00:23:51.741Z,26.65
2022-10-31T00:26:19.501Z,24.75
2022-10-31T00:28:47.077Z,24.87
2022-10-31T00:31:14.795Z,22.98
2022-10-31T00:33:42.358Z,21.30
2022-10-31T00:36:13.480Z,19.77
2022-10-31T00:38:42.334Z,18.33
2022-10-31T00:41:10.679Z,17.40
2022-10-31T00:43:40.536Z,17.50
2022-10-31T00:46:08.186Z,19.02
2022-10-31T00:48:35.515Z,18.52
2022-10-31T00:51:02.989Z,17.95
2022-10-31T00:53:30.574Z,18.10
2022-10-31T00:55:57.890Z,18.83
2022-10-31T00:58:25.354Z,17.45
2022-10-31T01:00:56.391Z,16.73
2022-10-31T01:03:25.961Z,17.37
2022-10-31T01:06:07.249Z,17.90
2022-10-31T01:08:35.887Z,17.23
2022-10-31T01:11:08.869Z,17.30
2022-10-31T01:13:36.197Z,15.85
2022-10-31T01:16:05.826Z,17.58
2022-10-31T01:18:34.185Z,16.80
2022-10-31T01:21:08.991Z,18.25
2022-10-31T01:23:37.261Z,17.00
2022-10-31T01:26:09.082Z,18.50
2022-10-31T01:28:38.560Z,18.37
2022-10-31T01:31:08.314Z,19.65
2022-10-31T01:33:36.557Z,19.70
2022-10-31T01:36:15.589Z,20.80
2022-10-31T01:38:43.192Z,18.45
2022-10-31T01:41:14.258Z,18.85
2022-10-31T01:43:51.378Z,21.08
2022-10-31T01:46:35.413Z,20.40
2022-10-31T01:49:05.630Z,20.48
2022-10-31T01:51:38.272Z,20.12
2022-10-31T01:54:07.643Z,22.75
2022-10-31T01:56:38.806Z,21.48
2022-10-31T01:59:08.600Z,21.45
2022-10-31T02:01:36.653Z,20.73
2022-10-31T02:04:05.041Z,20.98
2022-10-31T02:06:48.556Z,20.50
2022-10-31T02:09:16.714Z,20.70
2022-10-31T02:11:45.169Z,21.55
2022-10-31T02:14:13.933Z,20.08
2022-10-31T02:16:41.495Z,21.05
2022-10-31T02:19:10.120Z,20.80
2022-10-31T02:21:50.508Z,20.77
2022-10-31T02:24:33.307Z,19.77
2022-10-31T02:27:26.289Z,17.75
2022-10-31T02:30:12.722Z,18.23
2022-10-31T02:32:54.315Z,16.40
2022-10-31T02:35:33.610Z,16.23
2022-10-31T02:38:28.630Z,16.67
2022-10-31T02:41:23.600Z,15.75
2022-10-31T02:44:18.301Z,15.75
2022-10-31T02:47:12.009Z,15.95
2022-10-31T02:49:46.273Z,16.20
2022-10-31T02:52:16.037Z,15.95
2022-10-31T02:54:47.654Z,17.42
2022-10-31T02:57:17.557Z,15.73
2022-10-31T02:59:50.204Z,15.15
2022-10-31T03:02:36.237Z,16.25
2022-10-31T03:05:20.165Z,15.70
2022-10-31T03:08:11.882Z,14.98
2022-10-31T03:10:49.907Z,15.32
2022-10-31T03:13:42.243Z,13.32
2022-10-31T03:18:57.191Z,12.70
2022-10-31T03:21:28.659Z,12.88
2022-10-31T03:23:57.615Z,14.07
2022-10-31T03:26:26.060Z,13.60
2022-10-31T03:28:59.445Z,14.20
2022-10-31T03:31:31.323Z,13.20
2022-10-31T03:34:01.067Z,13.98
2022-10-31T03:36:35.671Z,13.00
2022-10-31T03:39:05.827Z,12.52
2022-10-31T03:41:38.667Z,13.52
2022-10-31T03:44:11.967Z,13.52
2022-10-31T03:46:40.615Z,14.23
2022-10-31T03:49:08.005Z,12.45
2022-10-31T03:52:07.980Z,12.60
2022-10-31T03:54:54.351Z,12.85
2022-10-31T03:57:32.557Z,13.55
2022-10-31T04:00:09.720Z,12.35
2022-10-31T04:03:06.085Z,13.45
2022-10-31T04:05:34.595Z,12.98
2022-10-31T04:08:05.205Z,12.20
2022-10-31T04:10:33.676Z,13.55
2022-10-31T04:13:06.200Z,13.65
2022-10-31T04:15:34.510Z,12.75
2022-10-31T04:18:05.037Z,12.40
2022-10-31T04:20:37.489Z,12.70
2022-10-31T04:23:09.886Z,13.32
2022-10-31T04:25:39.682Z,11.45
2022-10-31T04:28:07.581Z,11.40
2022-10-31T04:30:35.037Z,11.55
2022-10-31T04:33:02.650Z,12.27
2022-10-31T04:35:30.990Z,12.25
2022-10-31T04:37:58.388Z,12.57
2022-10-31T04:40:25.766Z,12.07
2022-10-31T04:42:55.842Z,12.15
2022-10-31T04:45:23.185Z,12.37
2022-10-31T04:47:51.243Z,12.27
2022-10-31T04:50:19.067Z,12.13
2022-10-31T04:52:46.964Z,11.38
2022-10-31T04:55:15.594Z,12.23
2022-10-31T04:57:47.678Z,11.73
2022-10-31T05:00:18.008Z,11.65
2022-10-31T05:02:46.804Z,11.82
2022-10-31T05:05:15.524Z,12.30
2022-10-31T05:07:44.552Z,12.63
2022-10-31T05:10:15.136Z,12.20
2022-10-31T05:12:50.704Z,13.65
2022-10-31T05:15:23.044Z,13.57
2022-10-31T05:17:54.402Z,13.20
2022-10-31T05:20:25.563Z,14.20
2022-10-31T05:22:55.815Z,13.90
2022-10-31T05:25:25.302Z,14.25
2022-10-31T05:27:53.418Z,13.65
2022-10-31T05:30:23.708Z,14.30
2022-10-31T05:32:51.796Z,13.48
2022-10-31T05:35:32.518Z,14.25
2022-10-31T05:38:00.963Z,15.68
2022-10-31T05:40:29.098Z,15.45
2022-10-31T05:42:57.978Z,15.95
2022-10-31T05:45:26.581Z,14.90
2022-10-31T05:47:59.889Z,16.25
2022-10-31T05:50:30.565Z,16.83
2022-10-31T05:53:03.700Z,16.45
2022-10-31T05:55:32.360Z,16.58
2022-10-31T05:58:00.290Z,17.80
2022-10-31T06:00:28.963Z,17.80
2022-10-31T06:03:01.893Z,19.60
2022-10-31T06:05:30.937Z,16.85
2022-10-31T06:07:59.270Z,18.40
2022-10-31T06:10:27.749Z,19.75
2022-10-31T06:12:56.095Z,19.00
2022-10-31T06:15:24.709Z,19.48
2022-10-31T06:18:04.592Z,17.58
2022-10-31T06:20:34.320Z,18.85
2022-10-31T06:23:03.015Z,19.27
2022-10-31T06:25:31.858Z,18.10
2022-10-31T06:27:59.539Z,18.20
2022-10-31T06:30:28.062Z,18.95
2022-10-31T06:33:03.099Z,18.85
2022-10-31T06:35:31.155Z,18.65
2022-10-31T06:38:00.077Z,18.55
2022-10-31T06:40:27.987Z,17.52
2022-10-31T06:43:01.102Z,18.98
2022-10-31T06:45:29.906Z,18.65
2022-10-31T06:48:17.736Z,17.67
2022-10-31T06:50:47.493Z,17.77
2022-10-31T06:53:15.396Z,18.40
2022-10-31T06:55:43.212Z,18.20
2022-10-31T06:58:11.597Z,17.45
2022-10-31T07:00:39.932Z,17.77
2022-10-31T07:03:12.332Z,16.98
2022-10-31T07:05:40.444Z,17.92
2022-10-31T07:08:10.050Z,16.80
2022-10-31T07:10:40.409Z,17.15
2022-10-31T07:13:15.493Z,16.95
2022-10-31T07:15:44.491Z,17.58
2022-10-31T07:18:13.060Z,17.98
2022-10-31T07:20:40.700Z,19.12
2022-10-31T07:23:10.081Z,18.30
2022-10-31T07:25:39.322Z,18.48
2022-10-31T07:28:07.467Z,18.58
2022-10-31T07:30:34.802Z,18.37
2022-10-31T07:33:02.706Z,18.30
2022-10-31T07:35:32.902Z,19.00
2022-10-31T07:38:08.096Z,18.85
2022-10-31T07:40:35.747Z,19.60
2022-10-31T07:43:03.344Z,18.42
2022-10-31T07:45:31.230Z,18.70
2022-10-31T07:48:03.587Z,19.48
2022-10-31T07:50:40.150Z,17.40
2022-10-31T07:53:12.151Z,16.75
2022-10-31T07:55:41.292Z,17.73
2022-10-31T07:58:16.416Z,17.62
2022-10-31T08:00:45.734Z,18.90
2022-10-31T08:03:15.879Z,17.40
2022-10-31T08:05:48.162Z,19.08
2022-10-31T08:08:17.596Z,17.90
2022-10-31T08:10:45.234Z,18.33
2022-10-31T08:13:14.222Z,18.10
2022-10-31T08:15:43.064Z,17.98
2022-10-31T08:18:13.722Z,11.52
2022-10-31T08:20:41.862Z,17.23
2022-10-31T08:23:10.700Z,17.40
2022-10-31T08:25:39.245Z,18.75
2022-10-31T08:28:08.056Z,17.90
2022-10-31T08:30:38.203Z,19.02
2022-10-31T08:33:14.496Z,16.77
2022-10-31T08:35:49.384Z,18.83
2022-10-31T08:38:19.191Z,18.30
2022-10-31T08:40:49.437Z,17.87
2022-10-31T08:43:17.810Z,18.80
2022-10-31T08:45:46.078Z,18.27
2022-10-31T08:48:17.411Z,18.70
2022-10-31T08:50:45.949Z,17.08
2022-10-31T08:53:16.231Z,18.08
2022-10-31T08:55:45.294Z,17.80
2022-10-31T08:58:18.007Z,18.05
2022-10-31T09:00:48.374Z,16.48
2022-10-31T09:03:24.112Z,16.87
2022-10-31T09:05:52.226Z,17.30
2022-10-31T09:08:19.972Z,18.45
2022-10-31T09:10:47.500Z,19.12
2022-10-31T09:13:20.312Z,18.95
2022-10-31T09:15:50.362Z,18.42
2022-10-31T09:18:21.931Z,15.85
2022-10-31T09:20:50.422Z,18.35
2022-10-31T09:23:20.209Z,17.62
2022-10-31T09:25:50.756Z,17.77
2022-10-31T09:28:24.238Z,17.42
2022-10-31T09:30:53.028Z,17.87
2022-10-31T09:33:21.858Z,17.35
2022-10-31T09:35:50.826Z,15.80
2022-10-31T09:38:21.935Z,17.50
2022-10-31T09:40:57.095Z,16.90
2022-10-31T09:43:30.344Z,17.25
2022-10-31T09:46:05.270Z,18.17
2022-10-31T09:49:03.919Z,17.40
2022-10-31T09:51:52.969Z,18.08
2022-10-31T09:54:41.367Z,17.08
2022-10-31T09:57:14.094Z,16.35
2022-10-31T09:59:43.213Z,15.52
2022-10-31T10:02:15.201Z,15.60
2022-10-31T10:05:00.477Z,17.80
2022-10-31T10:07:33.442Z,17.58
2022-10-31T10:13:09.667Z,18.00
2022-10-31T10:15:40.604Z,16.95
2022-10-31T10:18:15.401Z,16.17
2022-10-31T10:21:08.068Z,16.25
2022-10-31T10:23:43.958Z,16.42
2022-10-31T10:26:18.775Z,16.67
2022-10-31T10:29:03.452Z,14.80
2022-10-31T10:31:38.291Z,16.10
2022-10-31T10:34:08.822Z,15.45
2022-10-31T10:36:44.049Z,15.20
2022-10-31T10:39:21.749Z,15.43
2022-10-31T10:42:09.534Z,17.55
2022-10-31T10:45:01.720Z,17.05
2022-10-31T10:47:41.596Z,16.33
2022-10-31T10:50:19.630Z,17.50
2022-10-31T10:53:07.773Z,16.58
2022-10-31T10:55:40.341Z,18.37
2022-10-31T10:58:09.060Z,17.58
2022-10-31T11:00:40.076Z,18.45
2022-10-31T11:03:07.959Z,17.67
2022-10-31T11:05:40.747Z,17.50
2022-10-31T11:08:08.942Z,17.10
2022-10-31T11:10:36.618Z,16.98
2022-10-31T11:13:21.656Z,17.42
2022-10-31T11:16:40.404Z,15.20
2022-10-31T11:19:09.943Z,15.23
2022-10-31T11:21:37.630Z,15.15
2022-10-31T11:24:11.029Z,16.62
2022-10-31T11:26:40.173Z,15.27
2022-10-31T11:29:25.894Z,15.32
2022-10-31T11:31:56.167Z,15.70
2022-10-31T11:34:30.258Z,14.50
2022-10-31T11:37:04.436Z,14.23
2022-10-31T11:39:32.215Z,14.65
2022-10-31T11:42:07.703Z,13.93
2022-10-31T11:44:36.342Z,14.18
2022-10-31T11:47:05.806Z,14.77
2022-10-31T11:49:37.032Z,13.98
2022-10-31T11:52:09.770Z,14.63
2022-10-31T11:54:45.763Z,13.55
2022-10-31T11:57:43.596Z,14.30
2022-10-31T12:00:41.759Z,13.15
2022-10-31T12:03:34.375Z,13.55
2022-10-31T12:06:06.431Z,13.62
2022-10-31T12:11:19.874Z,14.55
2022-10-31T12:14:16.362Z,13.52
2022-10-31T12:17:01.423Z,12.18
2022-10-31T12:19:57.113Z,13.38
2022-10-31T12:22:27.873Z,13.68
2022-10-31T12:25:16.654Z,14.98
2022-10-31T12:27:53.054Z,15.43
2022-10-31T12:30:22.688Z,13.68
2022-10-31T12:33:14.810Z,12.32
2022-10-31T12:35:47.571Z,12.07
2022-10-31T12:38:33.977Z,12.23
2022-10-31T12:41:37.122Z,12.18
2022-10-31T12:46:59.443Z,11.57
2022-10-31T12:49:44.791Z,11.55
2022-10-31T12:52:19.764Z,11.02
2022-10-31T12:55:15.381Z,10.88
2022-10-31T12:57:53.487Z,11.48
2022-10-31T13:00:22.587Z,11.85
2022-10-31T13:03:19.639Z,11.23
2022-10-31T13:05:53.150Z,11.75
2022-10-31T13:08:29.759Z,12.57
2022-10-31T13:11:03.919Z,12.65
2022-10-31T13:13:52.814Z,13.48
2022-10-31T13:16:29.820Z,13.65
2022-10-31T13:19:06.939Z,43.20
2022-10-31T13:21:42.620Z,28.65
2022-10-31T13:24:17.802Z,14.95
2022-10-31T13:26:49.202Z,16.62
2022-10-31T13:29:31.486Z,15.52
2022-10-31T13:32:07.416Z,14.02
2022-10-31T13:34:40.980Z,14.98
2022-10-31T13:37:35.775Z,15.68
2022-10-31T13:40:34.166Z,15.52
2022-10-31T13:43:10.733Z,16.50
2022-10-31T13:45:49.038Z,17.77
2022-10-31T13:48:16.202Z,17.25
2022-10-31T13:50:56.027Z,17.92
2022-10-31T13:53:24.095Z,16.37
2022-10-31T13:56:17.334Z,15.43
2022-10-31T13:59:10.441Z,18.02
2022-10-31T14:01:47.268Z,17.70
2022-10-31T14:04:25.283Z,16.98
2022-10-31T14:07:11.227Z,16.77
2022-10-31T14:09:40.186Z,14.18
2022-10-31T14:12:22.300Z,13.48
2022-10-31T14:17:21.398Z,13.90
2022-10-31T14:20:36.041Z,12.98
2022-10-31T14:23:31.358Z,13.60
2022-10-31T14:26:32.430Z,15.20
2022-10-31T14:29:22.553Z,14.55
2022-10-31T14:31:57.244Z,15.70
2022-10-31T14:34:37.295Z,15.27
2022-10-31T14:37:25.788Z,15.15
2022-10-31T14:40:18.487Z,14.50
2022-10-31T14:43:22.734Z,17.15
2022-10-31T14:46:12.701Z,16.17
2022-10-31T14:48:55.171Z,15.60
2022-10-31T14:51:24.549Z,14.40
2022-10-31T14:53:56.493Z,15.85
2022-10-31T14:58:56.522Z,15.93
2022-10-31T15:01:31.699Z,15.57
2022-10-31T15:04:24.078Z,16.62
2022-10-31T15:06:59.297Z,15.77
2022-10-31T15:09:32.302Z,16.00
2022-10-31T15:12:01.217Z,15.00
2022-10-31T15:14:31.075Z,16.17
2022-10-31T15:16:59.561Z,16.08
2022-10-31T15:19:28.617Z,16.23
2022-10-31T15:21:57.160Z,17.73
2022-10-31T15:24:35.074Z,18.45
2022-10-31T15:27:05.113Z,17.80
2022-10-31T15:29:32.629Z,18.12
2022-10-31T15:32:21.942Z,18.15
2022-10-31T15:34:51.877Z,15.68
2022-10-31T15:37:21.393Z,16.20
2022-10-31T15:39:50.394Z,15.95
2022-10-31T15:42:47.209Z,14.60
2022-10-31T15:45:14.750Z,14.48
2022-10-31T15:48:17.957Z,15.68
2022-10-31T15:50:52.704Z,15.25
2022-10-31T15:53:27.383Z,15.25
2022-10-31T15:56:00.016Z,16.27
2022-10-31T15:58:29.266Z,15.07
2022-10-31T16:01:05.495Z,16.70
2022-10-31T16:03:34.707Z,17.30
2022-10-31T16:06:04.892Z,15.48
2022-10-31T16:08:32.097Z,15.15
2022-10-31T16:11:04.452Z,17.25
2022-10-31T16:13:34.305Z,16.20
2022-10-31T16:16:32.998Z,17.60
2022-10-31T16:18:53.314Z,22.08
2022-10-31T16:21:26.624Z,17.30
2022-10-31T16:23:58.428Z,19.40
2022-10-31T16:29:03.338Z,16.85
2022-10-31T16:31:40.615Z,17.10
2022-10-31T16:34:26.636Z,15.80
2022-10-31T16:36:54.843Z,17.27
2022-10-31T16:39:22.201Z,16.80
2022-10-31T16:41:51.907Z,17.12
2022-10-31T16:44:24.319Z,17.33
2022-10-31T16:47:14.653Z,17.05
2022-10-31T16:49:43.652Z,16.95
2022-10-31T16:52:11.000Z,18.30
2022-10-31T16:54:38.375Z,17.90
2022-10-31T16:57:06.899Z,18.40
2022-10-31T16:59:34.598Z,17.85
2022-10-31T17:02:04.169Z,17.40
2022-10-31T17:04:31.954Z,17.58
2022-10-31T17:06:59.351Z,17.55
2022-10-31T17:09:26.879Z,19.05
2022-10-31T17:11:54.732Z,18.62
2022-10-31T17:14:22.177Z,18.83
2022-10-31T17:16:49.473Z,19.98
2022-10-31T17:19:17.108Z,20.20
2022-10-31T17:21:44.488Z,20.42
2022-10-31T17:24:15.575Z,18.87
2022-10-31T17:26:43.256Z,21.13
2022-10-31T17:29:10.629Z,19.60
2022-10-31T17:31:39.237Z,18.92
2022-10-31T17:34:07.247Z,19.00
2022-10-31T17:36:35.112Z,17.83
2022-10-31T17:39:03.472Z,19.48
2022-10-31T17:41:31.191Z,19.42
2022-10-31T17:43:59.542Z,20.67
2022-10-31T17:46:28.332Z,19.10
2022-10-31T17:48:55.912Z,20.58
2022-10-31T17:51:23.464Z,20.10
2022-10-31T17:53:51.116Z,19.45
2022-10-31T17:56:19.685Z,18.95
2022-10-31T17:58:46.998Z,19.08
2022-10-31T18:01:16.385Z,17.35
2022-10-31T18:03:44.446Z,18.12
2022-10-31T18:06:14.386Z,18.77
2022-10-31T18:08:41.806Z,18.80
2022-10-31T18:11:14.738Z,19.23
2022-10-31T18:13:42.351Z,20.05
2022-10-31T18:16:12.010Z,20.08
2022-10-31T18:18:39.355Z,18.23
2022-10-31T18:21:06.763Z,17.62
2022-10-31T18:23:34.375Z,18.05
2022-10-31T18:26:01.958Z,18.58
2022-10-31T18:28:29.331Z,18.85
2022-10-31T18:31:00.444Z,18.42
2022-10-31T18:33:28.134Z,20.02
2022-10-31T18:35:55.776Z,21.10
2022-10-31T18:38:23.361Z,23.17
2022-10-31T18:40:51.489Z,23.42
2022-10-31T18:43:18.806Z,21.30
2022-10-31T18:45:48.653Z,20.50
2022-10-31T18:48:17.686Z,21.15
2022-10-31T18:50:45.721Z,23.00
2022-10-31T18:53:13.340Z,23.38
2022-10-31T18:55:45.358Z,24.08
2022-10-31T18:58:17.050Z,25.60
2022-10-31T19:00:45.793Z,23.70
2022-10-31T19:03:14.371Z,25.25
2022-10-31T19:05:41.971Z,23.45
2022-10-31T19:08:09.301Z,24.60
2022-10-31T19:10:38.283Z,24.27
2022-10-31T19:13:06.521Z,23.02
2022-10-31T19:15:34.671Z,24.02
2022-10-31T19:18:02.252Z,22.10
2022-10-31T19:20:30.085Z,22.92
2022-10-31T19:22:57.487Z,20.83
2022-10-31T19:25:24.906Z,21.75
2022-10-31T19:27:52.783Z,19.83
2022-10-31T19:30:21.278Z,20.33
2022-10-31T19:32:48.588Z,20.15
2022-10-31T19:35:16.659Z,21.92
2022-10-31T19:37:43.982Z,21.15
2022-10-31T19:40:12.323Z,21.12
2022-10-31T19:42:39.880Z,19.08
2022-10-31T19:45:07.505Z,17.35
2022-10-31T19:47:34.842Z,17.52
2022-10-31T19:50:04.903Z,15.95
2022-10-31T19:52:35.794Z,14.75
2022-10-31T19:55:03.570Z,13.30
2022-10-31T19:58:00.244Z,14.20
2022-10-31T20:00:21.196Z,14.32
2022-10-31T20:02:48.763Z,14.15
2022-10-31T20:05:16.087Z,14.30
2022-10-31T20:07:43.391Z,15.50
2022-10-31T20:10:10.998Z,13.90
2022-10-31T20:12:38.468Z,12.82
2022-10-31T20:15:06.285Z,14.93
2022-10-31T20:17:33.879Z,13.27
2022-10-31T20:20:02.968Z,15.07
2022-10-31T20:22:30.340Z,15.60
2022-10-31T20:24:57.916Z,14.50
2022-10-31T20:27:25.229Z,15.98
2022-10-31T20:29:52.541Z,15.02
2022-10-31T20:32:20.500Z,14.80
2022-10-31T20:37:20.322Z,14.50
2022-10-31T20:39:48.742Z,15.15
2022-10-31T20:42:17.565Z,14.68
2022-10-31T20:44:45.163Z,16.33
2022-10-31T20:47:13.198Z,16.95
2022-10-31T20:49:40.530Z,16.27
2022-10-31T20:52:08.118Z,17.05
2022-10-31T20:54:35.425Z,15.23
2022-10-31T20:57:02.737Z,16.35
2022-10-31T20:59:30.377Z,17.15
2022-10-31T21:01:57.833Z,16.35
2022-10-31T21:04:25.220Z,17.83
2022-10-31T21:06:52.840Z,17.48
2022-10-31T21:09:20.180Z,19.00
2022-10-31T21:11:47.516Z,18.37
2022-10-31T21:14:15.106Z,18.35
2022-10-31T21:16:42.432Z,18.80
2022-10-31T21:19:09.830Z,18.08
2022-10-31T21:21:37.428Z,19.08
2022-10-31T21:24:07.166Z,19.00
2022-10-31T21:26:37.825Z,20.30
2022-10-31T21:29:06.554Z,18.67
2022-10-31T21:31:35.732Z,20.60
2022-10-31T21:34:03.452Z,19.58
2022-10-31T21:36:31.083Z,19.90
2022-10-31T21:38:58.411Z,20.62
2022-10-31T21:41:26.400Z,19.98
2022-10-31T21:43:54.604Z,19.10
2022-10-31T21:46:30.171Z,20.05
2022-10-31T21:48:58.600Z,19.17
2022-10-31T21:51:28.074Z,19.10
2022-10-31T21:54:14.887Z,18.50
2022-10-31T21:56:43.044Z,16.55
2022-10-31T21:59:10.661Z,18.20
2022-10-31T22:01:38.145Z,19.58
2022-10-31T22:04:06.443Z,20.60
2022-10-31T22:06:34.481Z,19.67
2022-10-31T22:09:04.655Z,18.62
2022-10-31T22:11:32.567Z,18.23
2022-10-31T22:14:00.894Z,19.20
2022-10-31T22:16:29.602Z,19.77
2022-10-31T22:18:59.481Z,19.20
2022-10-31T22:21:28.136Z,18.92
2022-10-31T22:24:00.474Z,17.55
2022-10-31T22:26:31.124Z,18.45
2022-10-31T22:29:02.083Z,18.20
2022-10-31T22:31:30.779Z,17.80
2022-10-31T22:33:58.459Z,17.08
2022-10-31T22:36:28.194Z,19.40
2022-10-31T22:38:55.971Z,17.92
2022-10-31T22:41:29.226Z,19.25
2022-10-31T22:43:57.136Z,17.70
2022-10-31T22:46:26.970Z,16.77
2022-10-31T22:48:56.389Z,16.83
2022-10-31T22:51:29.291Z,17.92
2022-10-31T22:53:57.061Z,17.77
2022-10-31T22:56:26.716Z,17.10
2022-10-31T22:58:54.140Z,14.65
2022-10-31T23:01:25.385Z,13.85
2022-10-31T23:03:52.823Z,13.43
2022-10-31T23:06:22.065Z,14.25
2022-10-31T23:08:50.181Z,13.98
2022-10-31T23:11:24.561Z,14.35
2022-10-31T23:14:10.710Z,13.25
2022-10-31T23:16:48.690Z,14.02
2022-10-31T23:19:23.227Z,14.77
2022-10-31T23:22:02.137Z,13.93
2022-10-31T23:24:46.556Z,13.90
2022-10-31T23:27:19.382Z,13.48
2022-10-31T23:29:50.650Z,14.18
2022-10-31T23:32:23.463Z,13.18
2022-10-31T23:34:53.368Z,13.35
2022-10-31T23:37:22.529Z,13.27
2022-10-31T23:39:50.096Z,13.00
2022-10-31T23:42:18.790Z,14.52
2022-10-31T23:44:46.431Z,14.00
2022-10-31T23:47:13.846Z,12.93
2022-10-31T23:49:41.484Z,12.07
2022-10-31T23:52:09.392Z,12.00
2022-10-31T23:54:36.716Z,11.30
2022-10-31T23:57:04.933Z,11.38
2022-10-31T23:59:32.835Z,12.48
